Time;durP1;ratioP1;P1;durP2;ratioP2;P2;SDS_P1;SDS_P2;PMS_P1;PMS_P2;Temp;Humidity;BMP_temperature;BMP_pressure;BME280_temperature;BME280_humidity;BME280_pressure;Samples;Min_cycle;Max_cycle;Signal;HPM_P1;HPM_P2
2022/09/22 00:00:17;;;;;;;18.00;12.83;;;;;;;40.65;35.81;101112.09;6159300;23;20414;-79
2022/09/22 00:02:43;;;;;;;25.27;11.47;;;;;;;40.80;35.76;101106.16;6184059;23;20491;-81
2022/09/22 00:05:09;;;;;;;27.93;12.17;;;;;;;40.83;35.98;101103.94;6184477;23;20458;-80
2022/09/22 00:07:35;;;;;;;19.53;11.63;;;;;;;40.74;35.83;101099.28;6159094;23;20228;-79
2022/09/22 00:10:01;;;;;;;25.13;10.30;;;;;;;41.06;35.17;101095.28;6184186;23;20872;-81
2022/09/22 00:12:27;;;;;;;20.43;11.17;;;;;;;40.97;35.20;101099.16;6160076;23;20228;-81
2022/09/22 00:14:54;;;;;;;16.67;9.13;;;;;;;40.62;35.81;101107.28;6185992;23;20396;-81
2022/09/22 00:17:22;;;;;;;19.87;9.17;;;;;;;40.67;35.69;101098.16;6159426;23;20443;-81
2022/09/22 00:19:48;;;;;;;26.13;14.87;;;;;;;40.75;35.52;101100.09;6159228;23;20406;-80
2022/09/22 00:22:13;;;;;;;25.23;11.27;;;;;;;40.94;35.79;101097.84;6186003;23;20762;-80
2022/09/22 00:24:42;;;;;;;19.30;11.00;;;;;;;40.81;35.51;101090.63;6159086;23;20264;-80
2022/09/22 00:27:08;;;;;;;24.17;10.83;;;;;;;40.73;35.40;101092.25;6186043;23;20139;-81
2022/09/22 00:29:34;;;;;;;21.13;10.73;;;;;;;40.72;35.14;101074.34;6184155;23;20408;-81
2022/09/22 00:32:01;;;;;;;20.63;9.37;;;;;;;40.61;35.29;101080.41;6159032;23;20157;-79
2022/09/22 00:34:27;;;;;;;21.27;11.27;;;;;;;40.54;35.71;101076.25;6185915;23;20349;-81
2022/09/22 00:36:54;;;;;;;15.43;10.37;;;;;;;40.73;35.06;101088.72;6184081;23;20416;-79
2022/09/22 00:39:19;;;;;;;16.10;10.03;;;;;;;40.50;35.41;101080.72;6185660;23;20801;-80
2022/09/22 00:41:48;;;;;;;16.90;9.87;;;;;;;40.63;35.54;101084.41;6183990;23;20391;-81
2022/09/22 00:44:17;;;;;;;19.53;9.87;;;;;;;40.62;35.52;101084.72;6158912;23;20486;-81
2022/09/22 00:46:46;;;;;;;20.90;9.17;;;;;;;40.77;35.59;101084.25;6159823;23;20388;-81
2022/09/22 00:49:14;;;;;;;19.47;9.77;;;;;;;40.72;35.36;101071.63;6158917;23;20546;-80
2022/09/22 00:51:42;;;;;;;18.30;9.47;;;;;;;40.72;35.48;101068.09;6185898;23;20364;-80
2022/09/22 00:54:15;;;;;;;21.33;9.33;;;;;;;40.54;35.65;101061.88;6159043;23;20883;-81
2022/09/22 00:56:55;;;;;;;21.33;11.13;;;;;;;40.34;36.29;101070.63;6159075;23;20412;-81
2022/09/22 00:59:24;;;;;;;26.13;11.33;;;;;;;40.26;36.06;101070.25;6183319;23;20388;-81
2022/09/22 01:01:51;;;;;;;22.50;10.87;;;;;;;40.34;36.02;101062.47;6183681;23;20797;-81
2022/09/22 01:04:17;;;;;;;15.60;9.30;;;;;;;40.69;35.62;101061.38;6183517;23;20450;-81
2022/09/22 01:06:44;;;;;;;17.40;10.57;;;;;;;40.63;35.48;101053.69;6158592;23;20444;-81
2022/09/22 01:09:11;;;;;;;20.67;11.13;;;;;;;40.70;35.48;101046.66;6183727;23;20416;-81
2022/09/22 01:11:38;;;;;;;20.60;12.33;;;;;;;40.91;35.33;101046.03;6183730;23;20388;-81
2022/09/22 01:14:35;;;;;;;17.97;10.53;;;;;;;40.77;35.27;101044.25;6183755;23;20531;-82
2022/09/22 01:17:20;;;;;;;19.30;10.03;;;;;;;40.79;35.37;101043.94;6159061;23;20408;-81
2022/09/22 01:19:52;;;;;;;21.20;10.10;;;;;;;40.94;34.67;101037.19;6183584;23;20381;-82
2022/09/22 01:22:21;;;;;;;18.73;10.07;;;;;;;40.70;35.57;101034.97;6185744;23;20360;-80
2022/09/22 01:25:08;;;;;;;15.90;11.50;;;;;;;40.60;35.27;101022.50;6183718;23;20432;-80
2022/09/22 01:28:17;;;;;;;19.90;11.70;;;;;;;40.35;36.19;101013.22;6184044;23;20380;-81
2022/09/22 01:30:46;;;;;;;28.50;10.80;;;;;;;40.58;35.92;101007.63;6183374;23;20395;-81
2022/09/22 01:33:32;;;;;;;26.87;13.87;;;;;;;40.25;36.27;101013.50;6183695;23;20372;-80
2022/09/22 01:36:26;;;;;;;17.80;9.13;;;;;;;39.72;36.59;101017.25;6134186;23;20868;-81
2022/09/22 01:39:07;;;;;;;18.10;10.90;;;;;;;40.29;36.21;101028.88;6158899;23;20407;-81
2022/09/22 01:41:59;;;;;;;22.63;10.70;;;;;;;39.97;36.48;101019.22;6183473;23;20407;-81
2022/09/22 01:44:37;;;;;;;29.70;12.53;;;;;;;40.18;36.20;101024.06;6153086;23;20436;-81
2022/09/22 01:47:13;;;;;;;19.40;9.57;;;;;;;40.40;36.23;101021.22;6183701;23;20383;-82
2022/09/22 01:49:45;;;;;;;17.40;10.23;;;;;;;40.41;35.89;101016.56;6158782;23;20408;-81
2022/09/22 01:52:17;;;;;;;19.77;9.90;;;;;;;40.50;35.90;101022.81;6185579;23;20378;-79
2022/09/22 01:54:51;;;;;;;23.10;10.70;;;;;;;40.29;36.11;101019.94;6185414;23;20447;-80
2022/09/22 01:57:25;;;;;;;18.13;11.20;;;;;;;40.42;36.11;101020.88;6185202;23;20399;-81
2022/09/22 01:59:58;;;;;;;24.27;9.60;;;;;;;40.00;36.78;101020.50;6158371;23;20381;-80
2022/09/22 02:02:43;;;;;;;19.53;9.90;;;;;;;40.42;36.10;101015.44;6158118;23;20714;-79
2022/09/22 02:05:17;;;;;;;13.60;10.47;;;;;;;40.48;36.13;101022.34;6158348;23;20714;-81
2022/09/22 02:07:49;;;;;;;20.07;11.17;;;;;;;40.49;36.08;101013.06;6155410;23;20405;-81
2022/09/22 02:10:19;;;;;;;19.03;9.33;;;;;;;40.44;36.33;101011.28;6129833;23;20419;-81
2022/09/22 02:12:48;;;;;;;23.70;12.80;;;;;;;40.58;35.71;101011.16;6130714;23;20850;-81
2022/09/22 02:18:06;;;;;;;25.77;10.77;;;;;;;40.51;36.41;101014.34;6157041;23;20361;-81
2022/09/22 02:20:33;;;;;;;23.53;11.17;;;;;;;40.52;35.87;101009.72;6130889;23;20392;-81
2022/09/22 02:22:59;;;;;;;20.47;10.37;;;;;;;40.40;35.31;101020.41;6130429;23;20437;-81
2022/09/22 02:25:26;;;;;;;25.20;11.40;;;;;;;40.25;35.95;101019.75;6131006;23;20451;-81
2022/09/22 02:27:54;;;;;;;21.60;11.00;;;;;;;40.06;36.76;101013.81;6130815;23;20806;-80
2022/09/22 02:30:21;;;;;;;15.90;10.67;;;;;;;40.03;36.84;101023.38;6130777;23;20385;-80
2022/09/22 02:32:50;;;;;;;28.53;14.50;;;;;;;39.98;36.67;101015.38;6130882;23;20452;-81
2022/09/22 02:35:17;;;;;;;38.53;12.83;;;;;;;39.42;37.90;101018.84;6130664;23;20393;-81
2022/09/22 02:37:52;;;;;;;20.40;10.47;;;;;;;39.79;37.01;101024.94;6130895;23;20392;-81
2022/09/22 02:40:34;;;;;;;23.57;9.93;;;;;;;40.07;36.42;101012.69;6157029;23;20919;-81
2022/09/22 02:43:02;;;;;;;14.40;8.97;;;;;;;39.74;36.75;101018.50;6130813;23;20431;-81
2022/09/22 02:45:49;;;;;;;25.77;10.93;;;;;;;39.26;37.63;101020.38;6130518;23;20405;-80
2022/09/22 02:48:22;;;;;;;35.40;12.33;;;;;;;39.62;37.28;101017.53;6130404;23;20444;-81
2022/09/22 02:50:48;;;;;;;24.37;11.90;;;;;;;39.33;37.48;101023.44;6130729;23;20450;-81
2022/09/22 02:53:16;;;;;;;22.37;11.80;;;;;;;40.10;36.08;101017.50;6130416;23;20377;-81
2022/09/22 02:55:44;;;;;;;21.70;10.03;;;;;;;39.85;36.53;101013.59;6130727;23;20385;-80
2022/09/22 02:58:12;;;;;;;18.40;10.03;;;;;;;39.84;36.55;101013.88;6130572;23;20385;-80
2022/09/22 03:00:38;;;;;;;15.67;9.80;;;;;;;39.65;36.93;101022.31;6130405;23;20734;-81
2022/09/22 03:03:04;;;;;;;18.53;11.30;;;;;;;40.05;36.33;101014.16;6130352;23;20929;-81
2022/09/22 03:05:30;;;;;;;17.10;9.30;;;;;;;40.07;36.06;101020.84;6133054;23;20161;-81
2022/09/22 03:07:57;;;;;;;24.03;9.47;;;;;;;39.76;36.52;101019.00;6159881;23;20384;-80
2022/09/22 03:10:23;;;;;;;22.33;11.10;;;;;;;39.57;36.94;101015.72;6159799;23;20868;-81
2022/09/22 03:12:49;;;;;;;15.57;9.83;;;;;;;39.41;37.01;101022.66;6184674;23;20849;-81
2022/09/22 03:15:15;;;;;;;13.60;9.50;;;;;;;39.48;36.87;101018.41;6160127;23;20446;-81
2022/09/22 03:17:41;;;;;;;20.70;9.70;;;;;;;39.66;36.68;101019.28;6159742;23;20235;-81
2022/09/22 03:20:10;;;;;;;21.20;8.93;;;;;;;39.72;36.37;101023.47;6160032;23;20419;-81
2022/09/22 03:22:37;;;;;;;17.63;10.20;;;;;;;39.72;36.35;101028.09;6159576;23;20427;-79
2022/09/22 03:25:05;;;;;;;20.83;8.67;;;;;;;39.86;35.97;101026.06;6159742;23;20474;-81
2022/09/22 03:27:31;;;;;;;22.47;12.17;;;;;;;39.33;37.02;101034.28;6159739;23;20384;-81
2022/09/22 03:29:57;;;;;;;25.90;11.43;;;;;;;39.64;36.40;101039.72;6159671;23;20380;-80
2022/09/22 03:32:23;;;;;;;17.33;10.10;;;;;;;39.31;36.85;101040.03;6184834;23;20177;-81
2022/09/22 03:34:49;;;;;;;24.23;10.60;;;;;;;39.82;36.32;101040.56;6184676;23;20228;-81
2022/09/22 03:37:15;;;;;;;22.90;9.47;;;;;;;39.57;36.61;101040.13;6184579;23;20388;-80
2022/09/22 03:39:42;;;;;;;14.73;9.63;;;;;;;39.47;36.90;101038.53;6159840;23;20381;-81
2022/09/22 03:42:08;;;;;;;20.27;10.40;;;;;;;39.76;36.17;101043.44;6159553;23;20391;-80
2022/09/22 03:44:34;;;;;;;14.53;9.87;;;;;;;39.89;35.92;101038.19;6160011;23;20939;-80
2022/09/22 03:47:00;;;;;;;42.53;15.20;;;;;;;39.98;36.27;101041.75;6160382;23;20399;-81
2022/09/22 03:49:27;;;;;;;24.47;10.37;;;;;;;40.25;36.22;101044.22;6159461;23;20399;-81
2022/09/22 03:51:53;;;;;;;25.60;10.27;;;;;;;39.72;36.26;101041.69;6186508;23;20360;-81
2022/09/22 03:54:23;;;;;;;28.53;10.47;;;;;;;40.09;36.16;101051.25;6159483;23;20406;-80
2022/09/22 03:56:49;;;;;;;16.43;8.53;;;;;;;39.97;36.10;101045.59;6184441;23;20476;-80
2022/09/22 03:59:16;;;;;;;15.57;9.23;;;;;;;39.41;37.27;101060.66;6186132;23;20714;-81
2022/09/22 04:01:42;;;;;;;25.50;9.77;;;;;;;39.11;37.85;101063.03;6186172;23;20388;-81
2022/09/22 04:04:09;;;;;;;21.53;10.30;;;;;;;38.82;37.91;101049.91;6159372;23;20439;-80
2022/09/22 04:06:36;;;;;;;20.53;11.77;;;;;;;39.05;37.50;101055.34;6159152;23;20785;-82
2022/09/22 04:09:02;;;;;;;25.03;10.70;;;;;;;39.41;37.19;101066.09;6159487;23;20420;-80
2022/09/22 04:11:28;;;;;;;19.03;8.93;;;;;;;39.85;36.15;101059.78;6186248;23;20403;-80
2022/09/22 04:13:54;;;;;;;20.27;9.83;;;;;;;39.20;37.36;101068.53;6159427;23;20694;-81
2022/09/22 04:16:20;;;;;;;15.33;8.20;;;;;;;39.42;36.98;101067.72;6159373;23;20176;-81
2022/09/22 04:18:46;;;;;;;25.50;10.17;;;;;;;40.04;35.86;101059.53;6159180;23;20438;-81
2022/09/22 04:21:12;;;;;;;19.10;9.40;;;;;;;40.13;35.55;101067.69;6159358;23;20157;-81
2022/09/22 04:23:38;;;;;;;21.30;9.37;;;;;;;40.42;35.39;101062.47;6159309;23;20537;-81
2022/09/22 04:26:04;;;;;;;21.40;11.30;;;;;;;40.32;35.86;101067.41;6159184;23;20244;-81
2022/09/22 04:28:31;;;;;;;24.53;9.50;;;;;;;40.01;36.09;101057.41;6159167;23;20180;-81
2022/09/22 04:30:57;;;;;;;16.93;9.60;;;;;;;40.10;35.72;101062.91;6159213;23;20388;-81
2022/09/22 04:33:24;;;;;;;19.67;10.43;;;;;;;40.20;35.51;101065.31;6159092;23;20427;-81
2022/09/22 04:35:51;;;;;;;32.90;12.87;;;;;;;40.15;35.79;101063.56;6159261;23;20453;-81
2022/09/22 04:38:17;;;;;;;24.83;12.40;;;;;;;39.39;37.12;101063.69;6159183;23;20737;-81
2022/09/22 04:40:44;;;;;;;23.20;9.10;;;;;;;39.91;36.20;101063.94;6183817;23;20415;-80
2022/09/22 04:43:11;;;;;;;17.07;8.97;;;;;;;39.74;36.72;101064.69;6159080;23;20935;-80
2022/09/22 04:45:37;;;;;;;20.53;10.90;;;;;;;40.28;36.00;101064.53;6159321;23;20730;-81
2022/09/22 04:48:04;;;;;;;17.17;10.43;;;;;;;40.34;35.53;101065.97;6158992;23;20390;-81
2022/09/22 04:50:30;;;;;;;20.70;10.47;;;;;;;40.04;36.19;101070.41;6159015;23;20392;-80
2022/09/22 04:52:56;;;;;;;13.00;9.13;;;;;;;40.39;35.74;101074.00;6185829;23;20875;-81
2022/09/22 04:55:23;;;;;;;22.20;13.77;;;;;;;40.54;35.52;101075.47;6159087;23;20523;-81
2022/09/22 04:57:51;;;;;;;19.80;13.67;;;;;;;40.21;36.28;101073.16;6159056;23;20494;-81
2022/09/22 05:00:19;;;;;;;21.27;11.93;;;;;;;40.26;36.13;101078.41;6183683;23;20439;-81
2022/09/22 05:02:45;;;;;;;23.03;12.60;;;;;;;40.40;36.07;101082.94;6183329;23;20390;-75
2022/09/22 05:05:11;;;;;;;19.13;10.37;;;;;;;39.73;37.10;101090.25;6183341;23;20844;-75
2022/09/22 05:07:52;;;;;;;23.03;12.13;;;;;;;40.13;36.22;101086.72;6158372;23;20443;-75
2022/09/22 05:10:17;;;;;;;24.90;14.40;;;;;;;40.11;36.40;101092.47;6183494;23;20468;-75
2022/09/22 05:12:44;;;;;;;20.17;13.10;;;;;;;40.38;35.99;101099.53;6183614;23;20422;-75
2022/09/22 05:15:11;;;;;;;28.43;13.33;;;;;;;40.21;35.98;101100.34;6185360;23;20236;-76
2022/09/22 05:17:47;;;;;;;24.33;14.40;;;;;;;40.12;36.50;101104.94;6158888;23;20885;-75
2022/09/22 05:20:13;;;;;;;16.10;12.23;;;;;;;40.08;36.50;101105.88;6158632;23;20383;-76
2022/09/22 05:22:40;;;;;;;21.07;12.90;;;;;;;40.18;36.70;101108.31;6158532;23;20451;-76
2022/09/22 05:25:09;;;;;;;20.00;15.53;;;;;;;40.35;36.36;101111.06;6184957;23;20349;-75
2022/09/22 05:27:37;;;;;;;25.90;16.33;;;;;;;40.34;36.22;101114.09;6183162;23;20388;-74
2022/09/22 05:30:06;;;;;;;25.70;16.10;;;;;;;40.17;36.38;101107.50;6158300;23;20377;-74
2022/09/22 05:32:32;;;;;;;24.03;14.90;;;;;;;40.45;36.45;101115.38;6183355;23;20373;-74
2022/09/22 05:34:58;;;;;;;22.80;15.93;;;;;;;40.05;36.82;101110.03;6183089;23;20947;-74
2022/09/22 05:37:24;;;;;;;21.90;15.47;;;;;;;40.21;36.34;101111.22;6158327;23;20155;-73
2022/09/22 05:39:50;;;;;;;18.83;15.30;;;;;;;40.12;36.33;101113.09;6183232;23;20252;-74
2022/09/22 05:42:15;;;;;;;36.97;18.73;;;;;;;39.93;37.11;101109.81;6158580;23;20188;-74
2022/09/22 05:44:41;;;;;;;20.70;17.50;;;;;;;40.02;36.62;101116.88;6183036;23;20173;-74
2022/09/22 05:47:07;;;;;;;27.57;19.47;;;;;;;40.27;36.81;101109.94;6158382;23;20236;-74
2022/09/22 05:49:33;;;;;;;23.87;15.30;;;;;;;40.45;35.94;101108.03;6183274;23;20379;-72
2022/09/22 05:51:59;;;;;;;25.93;16.10;;;;;;;40.69;35.78;101106.81;6183168;23;20152;-71
2022/09/22 05:54:25;;;;;;;23.90;18.47;;;;;;;40.72;35.56;101112.41;6158190;23;20176;-72
2022/09/22 05:56:51;;;;;;;27.13;18.93;;;;;;;40.55;35.90;101115.13;6183029;23;20403;-71
2022/09/22 05:59:17;;;;;;;30.63;18.87;;;;;;;40.35;36.55;101111.06;6155711;23;20171;-72
2022/09/22 06:01:43;;;;;;;23.50;16.50;;;;;;;40.43;35.98;101117.63;6156331;23;20176;-71
2022/09/22 06:04:09;;;;;;;24.37;17.57;;;;;;;40.25;36.50;101119.50;6157736;23;20483;-72
2022/09/22 06:06:35;;;;;;;24.23;17.80;;;;;;;40.55;36.22;101132.22;6157764;23;20279;-71
2022/09/22 06:09:00;;;;;;;28.63;17.57;;;;;;;40.68;36.11;101135.13;6182638;23;20168;-72
2022/09/22 06:11:26;;;;;;;27.63;18.10;;;;;;;40.71;35.66;101135.28;6182685;23;20415;-72
2022/09/22 06:13:52;;;;;;;29.83;18.53;;;;;;;40.85;35.22;101143.28;6182684;23;20149;-72
2022/09/22 06:16:19;;;;;;;27.20;18.33;;;;;;;41.04;35.11;101151.16;6156852;23;20690;-72
2022/09/22 06:18:47;;;;;;;36.70;18.97;;;;;;;40.88;35.06;101156.25;6157127;23;20773;-72
2022/09/22 06:21:16;;;;;;;34.53;21.20;;;;;;;40.86;35.62;101158.50;6184876;23;20367;-72
2022/09/22 06:23:42;;;;;;;26.50;18.73;;;;;;;40.87;35.63;101165.53;6185148;23;20410;-73
2022/09/22 06:26:08;;;;;;;28.53;17.90;;;;;;;40.94;35.41;101165.88;6184303;23;20360;-73
2022/09/22 06:28:34;;;;;;;29.37;18.07;;;;;;;40.87;35.83;101170.97;6182942;23;20444;-74
2022/09/22 06:31:00;;;;;;;28.77;18.30;;;;;;;40.79;35.42;101169.06;6182985;23;20412;-73
2022/09/22 06:33:27;;;;;;;24.77;17.20;;;;;;;40.76;35.60;101175.13;6182930;23;20411;-73
2022/09/22 06:35:53;;;;;;;36.57;21.03;;;;;;;40.57;36.21;101171.91;6182915;23;20482;-74
2022/09/22 06:38:20;;;;;;;26.80;17.43;;;;;;;40.76;35.33;101181.38;6182892;23;20458;-74
2022/09/22 06:40:46;;;;;;;32.37;19.17;;;;;;;40.79;35.65;101175.28;6182756;23;20438;-75
2022/09/22 06:43:22;;;;;;;28.43;18.70;;;;;;;40.59;35.99;101180.56;6181463;23;20761;-72
2022/09/22 06:45:50;;;;;;;27.03;16.53;;;;;;;40.75;35.70;101189.84;6156682;23;20207;-72
2022/09/22 06:48:16;;;;;;;28.50;18.47;;;;;;;40.54;35.84;101198.59;6156341;23;20395;-73
2022/09/22 06:50:48;;;;;;;32.30;17.70;;;;;;;40.44;36.32;101201.59;6179915;23;20372;-72
2022/09/22 06:53:14;;;;;;;26.50;18.13;;;;;;;40.29;37.01;101196.59;6155629;23;20431;-72
2022/09/22 06:55:42;;;;;;;34.20;20.80;;;;;;;40.01;37.00;101201.38;6180254;23;20442;-72
2022/09/22 06:58:08;;;;;;;41.27;24.70;;;;;;;40.46;36.71;101201.28;6156754;23;20380;-71
2022/09/22 07:00:34;;;;;;;41.03;22.13;;;;;;;40.70;36.01;101192.72;6183119;22;20553;-71
2022/09/22 07:03:07;;;;;;;27.53;20.97;;;;;;;40.32;36.66;101197.88;6183989;23;20493;-71
2022/09/22 07:05:34;;;;;;;26.67;21.57;;;;;;;40.43;36.18;101204.63;6184084;23;20447;-72
2022/09/22 07:08:00;;;;;;;24.57;18.90;;;;;;;40.59;36.39;101214.00;6184120;23;20391;-73
2022/09/22 07:10:26;;;;;;;30.80;19.23;;;;;;;40.65;36.15;101220.06;6185950;23;20391;-73
2022/09/22 07:12:53;;;;;;;27.27;18.70;;;;;;;40.51;36.19;101228.34;6159351;23;20427;-72
2022/09/22 07:15:19;;;;;;;26.20;19.10;;;;;;;40.57;35.93;101231.72;6163329;23;20409;-72
2022/09/22 07:17:49;;;;;;;33.10;24.20;;;;;;;40.42;35.95;101235.66;6129988;23;20936;-72
2022/09/22 07:20:16;;;;;;;29.53;20.47;;;;;;;40.25;36.67;101247.25;6129741;23;20404;-72
2022/09/22 07:22:42;;;;;;;25.77;19.43;;;;;;;40.08;37.11;101252.59;6156161;23;20362;-72
2022/09/22 07:25:08;;;;;;;31.90;17.50;;;;;;;40.49;36.38;101263.22;6129900;23;20416;-72
2022/09/22 07:27:34;;;;;;;30.83;18.57;;;;;;;40.49;36.42;101266.72;6129469;23;20158;-73
2022/09/22 07:30:00;;;;;;;33.77;20.70;;;;;;;40.57;36.34;101257.00;6130044;23;20854;-73
2022/09/22 07:32:32;;;;;;;28.80;19.37;;;;;;;40.35;36.13;101262.50;6130316;23;20392;-72
2022/09/22 07:34:58;;;;;;;24.20;17.17;;;;;;;40.52;36.20;101270.75;6153952;23;20416;-72
2022/09/22 07:37:24;;;;;;;28.33;18.40;;;;;;;40.59;36.37;101283.88;6127675;23;20393;-72
2022/09/22 07:39:50;;;;;;;30.03;19.50;;;;;;;40.24;36.36;101284.50;6127824;23;20236;-73
2022/09/22 07:42:16;;;;;;;27.03;16.73;;;;;;;39.92;36.76;101284.78;6127932;23;20392;-72
2022/09/22 07:50:10;;;;;;;28.10;17.20;;;;;;;40.58;36.19;101293.13;6154361;23;20396;-73
2022/09/22 07:52:36;;;;;;;22.00;16.23;;;;;;;40.57;35.95;101291.53;6130103;23;20389;-73
2022/09/22 07:55:02;;;;;;;28.47;19.00;;;;;;;40.80;35.88;101291.13;6129805;23;20231;-73
2022/09/22 07:57:32;;;;;;;23.07;15.60;;;;;;;40.65;35.65;101301.66;6129706;23;20166;-73
2022/09/22 07:59:58;;;;;;;26.73;18.00;;;;;;;40.28;36.50;101301.81;6129712;23;20444;-73
2022/09/22 08:02:25;;;;;;;29.17;17.63;;;;;;;40.46;36.14;101299.97;6129563;23;20519;-71
2022/09/22 08:04:51;;;;;;;27.03;16.80;;;;;;;40.26;36.10;101309.44;6129540;23;20960;-72
2022/09/22 08:07:17;;;;;;;31.80;18.17;;;;;;;40.19;36.80;101303.66;6129537;23;20377;-71
2022/09/22 08:09:43;;;;;;;41.23;20.60;;;;;;;40.08;36.87;101318.59;6156309;23;20227;-71
2022/09/22 08:12:09;;;;;;;23.80;18.13;;;;;;;39.37;38.03;101320.25;6129476;23;20396;-71
2022/09/22 08:14:35;;;;;;;30.80;18.70;;;;;;;40.07;37.08;101325.16;6129658;23;20169;-71
2022/09/22 08:17:01;;;;;;;26.90;15.70;;;;;;;39.57;37.71;101327.13;6129422;23;20377;-72
2022/09/22 08:19:29;;;;;;;22.33;13.97;;;;;;;39.72;37.28;101327.63;6129978;23;20676;-71
2022/09/22 08:21:55;;;;;;;31.53;16.43;;;;;;;40.10;37.18;101334.63;6129641;23;20388;-71
2022/09/22 08:24:21;;;;;;;22.53;17.50;;;;;;;39.72;37.23;101324.91;6129365;23;20420;-71
2022/09/22 08:26:51;;;;;;;24.87;16.77;;;;;;;39.52;37.86;101340.81;6129442;23;20177;-71
2022/09/22 08:29:17;;;;;;;25.43;16.70;;;;;;;39.92;37.10;101339.91;6129338;23;20381;-71
2022/09/22 08:31:46;;;;;;;26.80;18.20;;;;;;;39.71;37.67;101336.84;6156085;23;20401;-71
2022/09/22 08:34:14;;;;;;;26.10;18.53;;;;;;;39.30;38.57;101338.88;6155918;23;20403;-71
2022/09/22 08:36:45;;;;;;;29.30;19.20;;;;;;;39.64;37.92;101341.13;6129393;23;20417;-71
2022/09/22 08:39:11;;;;;;;31.37;19.23;;;;;;;39.79;37.21;101345.41;6129455;23;20420;-71
2022/09/22 08:41:54;;;;;;;27.37;19.53;;;;;;;39.20;38.59;101348.03;6129334;23;20491;-71
2022/09/22 08:44:36;;;;;;;40.37;22.77;;;;;;;39.85;37.48;101353.13;6129316;23;20433;-72
2022/09/22 08:47:02;;;;;;;26.43;19.50;;;;;;;40.20;37.00;101365.03;6129418;23;20442;-72
2022/09/22 08:52:37;;;;;;;31.27;16.77;;;;;;;40.17;36.93;101354.00;6155497;23;20380;-72
2022/09/22 08:55:06;;;;;;;25.03;17.43;;;;;;;40.13;36.97;101351.09;6129249;23;20384;-72
2022/09/22 08:58:07;;;;;;;29.73;19.60;;;;;;;40.21;36.74;101360.44;6129297;23;20380;-72
2022/09/22 09:00:40;;;;;;;31.20;18.50;;;;;;;40.12;36.89;101356.84;6128925;23;20464;-72
2022/09/22 09:03:32;;;;;;;38.97;23.07;;;;;;;39.86;37.62;101362.88;6128995;23;20500;-72
2022/09/22 09:06:28;;;;;;;31.40;20.17;;;;;;;40.37;36.75;101364.34;6129118;23;20396;-72
2022/09/22 09:09:35;;;;;;;28.33;21.87;;;;;;;40.66;36.54;101363.09;6129154;23;20394;-72
2022/09/22 09:12:12;;;;;;;32.20;20.80;;;;;;;40.33;36.51;101362.56;6129092;23;20472;-73
2022/09/22 09:15:05;;;;;;;33.13;20.57;;;;;;;40.50;36.21;101371.66;6155805;23;20479;-73
2022/09/22 09:17:37;;;;;;;32.70;19.50;;;;;;;40.38;36.30;101368.66;6129084;23;20480;-73
2022/09/22 09:20:34;;;;;;;33.37;19.40;;;;;;;40.45;36.29;101365.50;6128699;23;20393;-73
2022/09/22 09:23:03;;;;;;;35.80;24.10;;;;;;;40.33;36.59;101368.00;6129099;23;20421;-73
2022/09/22 09:25:34;;;;;;;27.93;18.40;;;;;;;40.63;36.48;101372.66;6129020;23;20389;-73
2022/09/22 09:28:05;;;;;;;37.33;17.87;;;;;;;40.18;36.73;101372.72;6128978;23;20412;-73
2022/09/22 09:30:50;;;;;;;20.53;13.90;;;;;;;39.75;38.05;101375.88;6128946;23;20385;-72
2022/09/22 09:33:32;;;;;;;23.67;14.70;;;;;;;40.07;37.07;101374.06;6155291;23;20393;-71
2022/09/22 09:35:58;;;;;;;24.60;14.27;;;;;;;40.23;36.67;101369.88;6129054;23;20389;-71
2022/09/22 09:38:27;;;;;;;29.13;14.97;;;;;;;40.06;37.10;101371.66;6128881;23;20389;-73
2022/09/22 09:40:59;;;;;;;20.77;12.30;;;;;;;40.02;36.66;101377.72;6128928;23;20463;-71
2022/09/22 09:43:27;;;;;;;34.47;13.10;;;;;;;40.05;36.88;101370.06;6155305;23;20444;-72
2022/09/22 09:46:30;;;;;;;20.73;10.93;;;;;;;39.54;37.22;101373.91;6128993;23;20861;-71
2022/09/22 09:49:01;;;;;;;23.07;11.60;;;;;;;39.68;37.13;101380.94;6128967;23;20439;-72
2022/09/22 09:51:28;;;;;;;25.97;13.50;;;;;;;39.50;37.52;101384.56;6128958;23;20381;-71
2022/09/22 09:53:57;;;;;;;22.00;10.87;;;;;;;39.50;37.71;101387.28;6128771;23;20460;-71
2022/09/22 09:56:28;;;;;;;15.93;10.67;;;;;;;39.46;37.78;101381.66;6128913;23;20386;-72
2022/09/22 10:01:46;;;;;;;22.07;11.83;;;;;;;39.65;37.43;101381.53;6153881;23;20444;-72
2022/09/22 10:04:29;;;;;;;24.60;10.77;;;;;;;39.32;37.89;101380.06;6104493;23;20503;-73
2022/09/22 10:07:18;;;;;;;20.97;11.70;;;;;;;39.94;36.86;101375.72;6153945;23;20372;-73
2022/09/22 10:09:47;;;;;;;16.50;10.23;;;;;;;39.64;37.45;101381.84;6155431;23;20416;-73
2022/09/22 10:12:29;;;;;;;20.43;12.23;;;;;;;39.77;37.50;101372.84;6128746;23;20385;-73
2022/09/22 10:15:00;;;;;;;30.20;11.90;;;;;;;39.62;37.33;101373.22;6153518;23;20397;-74
2022/09/22 10:17:40;;;;;;;16.97;11.10;;;;;;;39.46;37.48;101372.69;6128884;23;20381;-74
2022/09/22 10:20:37;;;;;;;21.87;10.13;;;;;;;39.74;37.08;101377.00;6128658;23;20404;-72
2022/09/22 10:23:21;;;;;;;15.40;9.30;;;;;;;39.74;36.72;101373.47;6128570;23;20487;-73
2022/09/22 10:25:49;;;;;;;23.23;10.83;;;;;;;39.52;36.99;101366.06;6129590;23;20360;-73
2022/09/22 10:28:18;;;;;;;37.37;10.60;;;;;;;39.07;37.98;101371.31;6128723;23;20443;-72
2022/09/22 10:30:57;;;;;;;19.50;9.90;;;;;;;39.70;37.30;101367.84;6155083;23;20428;-72
2022/09/22 10:33:23;;;;;;;24.27;11.67;;;;;;;39.50;37.57;101358.22;6106508;23;20357;-73
2022/09/22 10:36:07;;;;;;;19.63;10.80;;;;;;;39.69;36.93;101363.53;6157225;23;20431;-72
2022/09/22 10:38:38;;;;;;;18.73;11.10;;;;;;;39.66;36.89;101364.16;6130525;23;20357;-71
2022/09/22 10:41:11;;;;;;;35.47;13.33;;;;;;;40.03;36.65;101352.13;6106230;23;20384;-71
2022/09/22 10:43:53;;;;;;;21.63;12.10;;;;;;;39.67;36.95;101357.59;6130350;23;20440;-72
2022/09/22 10:46:32;;;;;;;21.13;10.13;;;;;;;40.03;36.43;101348.63;6157027;23;20365;-72
2022/09/22 10:48:58;;;;;;;25.53;12.37;;;;;;;40.00;36.57;101346.50;6130517;23;20412;-73
2022/09/22 10:51:36;;;;;;;37.17;13.13;;;;;;;40.12;36.34;101357.66;6130480;23;20384;-73
2022/09/22 10:54:05;;;;;;;26.30;11.80;;;;;;;39.83;36.73;101354.53;6156892;23;20261;-74
2022/09/22 10:56:52;;;;;;;25.70;10.27;;;;;;;40.07;36.31;101360.50;6157053;23;20372;-72
2022/09/22 10:59:47;;;;;;;24.10;10.87;;;;;;;40.03;36.64;101354.06;6106232;23;20443;-73
2022/09/22 11:02:30;;;;;;;24.07;13.23;;;;;;;40.14;36.55;101349.97;6156391;23;20429;-72
2022/09/22 11:14:51;;;;;;;27.87;11.73;;;;;;;39.94;36.57;101340.38;6155210;23;20786;-72
2022/09/22 11:17:24;;;;;;;29.17;11.20;;;;;;;40.00;36.55;101338.34;6127454;23;20409;-72
2022/09/22 11:20:05;;;;;;;21.20;11.33;;;;;;;39.80;37.21;101330.72;6155509;23;20362;-72
2022/09/22 11:22:50;;;;;;;28.60;14.67;;;;;;;39.67;37.41;101321.50;6130260;23;20385;-71
2022/09/22 11:25:54;;;;;;;24.53;12.00;;;;;;;40.00;37.22;101314.69;6156383;23;20445;-72
2022/09/22 11:28:29;;;;;;;31.63;14.17;;;;;;;39.83;36.99;101303.72;6156550;23;20440;-72
2022/09/22 11:30:57;;;;;;;34.33;12.27;;;;;;;40.03;36.67;101300.50;6156602;23;20420;-71
2022/09/22 11:34:02;;;;;;;20.53;11.20;;;;;;;40.03;36.47;101288.84;6131105;23;20358;-72
2022/09/22 11:36:57;;;;;;;28.70;14.60;;;;;;;39.91;37.05;101275.81;6129948;23;20496;-72
2022/09/22 11:39:46;;;;;;;25.93;11.90;;;;;;;39.72;37.51;101267.88;6129817;23;20389;-71
2022/09/22 11:42:36;;;;;;;43.90;15.53;;;;;;;39.81;37.65;101267.13;6129741;23;20389;-72
2022/09/22 11:45:30;;;;;;;32.73;14.30;;;;;;;40.00;37.16;101257.66;6129831;23;20784;-72
2022/09/22 11:48:09;;;;;;;20.30;11.83;;;;;;;40.10;36.90;101243.03;6129762;23;20388;-72
2022/09/22 11:51:00;;;;;;;27.50;13.93;;;;;;;40.17;36.73;101245.31;6156515;23;20436;-71